createdAt,value
2023-05-08T00:00:05.929Z,8.76
2023-05-08T00:05:15.072Z,9.14
2023-05-08T00:10:23.422Z,8.88
2023-05-08T00:15:32.521Z,9.46
2023-05-08T00:20:40.894Z,9.36
2023-05-08T00:25:50.047Z,9.54
2023-05-08T00:30:58.891Z,9.97
2023-05-08T00:36:07.668Z,9.52
2023-05-08T00:41:15.893Z,9.09
2023-05-08T00:46:24.930Z,10.52
2023-05-08T00:51:33.453Z,8.31
2023-05-08T00:56:42.335Z,8.66
2023-05-08T01:01:51.142Z,8.01
2023-05-08T01:07:00.677Z,8.06
2023-05-08T01:12:09.371Z,8.22
2023-05-08T01:17:18.108Z,7.55
2023-05-08T01:22:26.957Z,8.27
2023-05-08T01:27:36.264Z,8.30
2023-05-08T01:32:44.830Z,9.04
2023-05-08T01:37:53.634Z,8.06
2023-05-08T01:43:02.356Z,8.25
2023-05-08T01:48:11.466Z,8.90
2023-05-08T01:53:20.425Z,9.06
2023-05-08T01:58:29.199Z,8.75
2023-05-08T02:03:37.940Z,9.65
2023-05-08T02:08:46.149Z,9.35
2023-05-08T02:13:54.746Z,10.36
2023-05-08T02:19:03.624Z,9.16
2023-05-08T02:24:12.790Z,8.97
2023-05-08T02:29:21.392Z,9.80
2023-05-08T02:34:30.026Z,8.51
2023-05-08T02:39:38.753Z,8.07
2023-05-08T02:44:47.586Z,8.65
2023-05-08T02:49:56.435Z,9.50
2023-05-08T02:55:05.261Z,8.74
2023-05-08T03:00:14.373Z,9.45
2023-05-08T03:05:22.736Z,8.99
2023-05-08T03:10:32.515Z,9.30
2023-05-08T03:15:40.863Z,9.75
2023-05-08T03:20:50.418Z,10.07
2023-05-08T03:25:59.286Z,10.26
2023-05-08T03:31:08.522Z,10.17
2023-05-08T03:36:17.513Z,12.04
2023-05-08T03:41:26.269Z,12.21
2023-05-08T03:46:35.184Z,14.06
2023-05-08T03:51:43.857Z,13.31
2023-05-08T03:56:52.682Z,10.19
2023-05-08T04:02:01.447Z,10.11
2023-05-08T04:07:09.916Z,10.77
2023-05-08T04:12:19.053Z,9.34
2023-05-08T04:17:27.881Z,6.98
2023-05-08T04:22:36.963Z,7.69
2023-05-08T04:27:45.570Z,5.76
2023-05-08T04:32:54.442Z,5.92
2023-05-08T04:38:03.227Z,5.62
2023-05-08T04:43:12.184Z,5.06
2023-05-08T04:48:20.447Z,5.19
2023-05-08T04:53:29.872Z,5.25
2023-05-08T04:58:38.739Z,5.48
2023-05-08T05:03:47.846Z,5.32
2023-05-08T05:08:56.539Z,5.07
2023-05-08T05:14:05.520Z,4.71
2023-05-08T05:19:13.995Z,5.37
2023-05-08T05:24:22.915Z,5.07
2023-05-08T05:29:31.604Z,4.37
2023-05-08T05:34:40.201Z,4.60
2023-05-08T05:39:49.343Z,4.18
2023-05-08T05:44:58.495Z,4.04
2023-05-08T05:50:07.791Z,3.88
2023-05-08T05:55:16.939Z,4.04
2023-05-08T06:00:25.698Z,3.99
2023-05-08T06:05:34.925Z,3.75
2023-05-08T06:10:43.348Z,4.04
2023-05-08T06:15:52.290Z,4.02
2023-05-08T06:21:00.911Z,3.83
2023-05-08T06:26:10.233Z,3.27
2023-05-08T06:31:18.776Z,3.45
2023-05-08T06:36:27.265Z,3.30
2023-05-08T06:41:35.936Z,3.37
2023-05-08T06:46:44.872Z,3.48
2023-05-08T06:51:54.448Z,2.94
2023-05-08T06:57:01.724Z,3.01
2023-05-08T07:02:10.556Z,2.82
2023-05-08T07:07:19.417Z,2.41
2023-05-08T07:12:27.855Z,2.45
2023-05-08T07:17:36.339Z,2.36
2023-05-08T07:22:44.789Z,2.50
2023-05-08T07:27:53.924Z,2.37
2023-05-08T07:33:05.529Z,2.38
2023-05-08T07:38:04.367Z,2.48
2023-05-08T07:43:12.937Z,2.44
2023-05-08T07:48:21.633Z,2.35
2023-05-08T07:53:30.021Z,2.17
2023-05-08T07:58:38.756Z,2.19
2023-05-08T08:03:47.871Z,2.80
2023-05-08T08:08:56.743Z,2.38
2023-05-08T08:14:05.195Z,2.26
2023-05-08T08:19:14.598Z,2.25
2023-05-08T08:24:23.272Z,2.06
2023-05-08T08:29:32.194Z,2.11
2023-05-08T08:34:41.102Z,2.15
2023-05-08T08:39:50.224Z,2.05
2023-05-08T08:44:58.758Z,2.02
2023-05-08T08:50:07.445Z,2.12
2023-05-08T08:55:16.331Z,2.06
2023-05-08T09:00:25.009Z,2.07
2023-05-08T09:05:33.353Z,2.15
2023-05-08T09:10:42.093Z,2.14
2023-05-08T09:15:50.958Z,2.12
2023-05-08T09:20:59.579Z,2.08
2023-05-08T09:26:08.377Z,2.21
2023-05-08T09:31:17.303Z,2.17
2023-05-08T09:36:25.693Z,2.12
2023-05-08T09:41:34.472Z,2.07
2023-05-08T09:46:43.281Z,2.06
2023-05-08T09:51:56.868Z,2.07
2023-05-08T09:56:55.627Z,2.13
2023-05-08T10:02:05.591Z,2.03
2023-05-08T10:07:14.029Z,2.15
2023-05-08T10:12:18.856Z,2.04
2023-05-08T10:17:27.724Z,2.24
2023-05-08T10:22:36.638Z,2.22
2023-05-08T10:27:50.379Z,2.32
2023-05-08T10:32:49.083Z,2.60
2023-05-08T10:37:55.578Z,2.33
2023-05-08T10:43:04.425Z,2.41
2023-05-08T10:48:13.244Z,2.37
2023-05-08T10:58:30.863Z,2.80
2023-05-08T11:03:39.913Z,2.80
2023-05-08T11:08:48.419Z,2.53
2023-05-08T11:13:57.081Z,2.54
2023-05-08T11:19:05.579Z,2.64
2023-05-08T11:24:14.859Z,2.73
2023-05-08T11:34:32.696Z,3.15
2023-05-08T11:39:41.488Z,2.85
2023-05-08T11:44:50.886Z,2.09
2023-05-08T11:49:59.404Z,2.33
2023-05-08T12:00:17.321Z,2.72
2023-05-08T12:05:25.164Z,8.89
2023-05-08T12:26:00.630Z,3.16
2023-05-08T12:31:09.221Z,4.01
2023-05-08T12:36:18.024Z,2.54
2023-05-08T12:41:26.770Z,2.58
2023-05-08T12:46:35.453Z,2.52
2023-05-08T12:51:44.049Z,2.64
2023-05-08T12:56:53.128Z,3.92
2023-05-08T13:02:01.640Z,2.35
2023-05-08T13:07:10.453Z,2.42
2023-05-08T13:12:21.317Z,2.57
2023-05-08T13:17:20.477Z,2.44
2023-05-08T13:22:29.608Z,2.55
2023-05-08T13:27:38.431Z,2.58
2023-05-08T13:32:46.802Z,2.34
2023-05-08T13:37:51.062Z,2.40
2023-05-08T13:43:00.186Z,2.43
2023-05-08T13:48:09.387Z,2.48
2023-05-08T13:53:17.917Z,3.17
2023-05-08T13:58:32.073Z,2.78
2023-05-08T14:03:30.921Z,4.27
2023-05-08T14:08:46.649Z,9.47
2023-05-08T14:13:43.107Z,10.71
2023-05-08T14:18:52.491Z,4.65
2023-05-08T14:24:01.721Z,2.79
2023-05-08T14:29:10.632Z,2.82
2023-05-08T14:34:19.319Z,3.29
2023-05-08T14:39:27.905Z,2.91
2023-05-08T14:44:36.574Z,2.98
2023-05-08T14:49:45.790Z,3.52
2023-05-08T14:54:54.360Z,3.91
2023-05-08T15:00:03.282Z,3.57
2023-05-08T15:05:19.061Z,3.46
2023-05-08T15:10:21.032Z,3.52
2023-05-08T15:15:29.445Z,3.83
2023-05-08T15:20:38.611Z,3.73
2023-05-08T15:25:47.453Z,5.76
2023-05-08T15:30:56.103Z,3.92
2023-05-08T15:46:22.296Z,5.65
2023-05-08T15:51:31.502Z,5.70
2023-05-08T15:56:39.988Z,6.63
2023-05-08T16:01:50.249Z,7.12
2023-05-08T16:06:57.626Z,6.69
2023-05-08T16:12:06.386Z,3.89
2023-05-08T16:17:14.870Z,4.25
2023-05-08T16:27:32.591Z,3.88
2023-05-08T16:32:41.806Z,3.79
2023-05-08T16:37:50.136Z,3.88
2023-05-08T16:53:16.297Z,4.06
2023-05-08T17:03:34.851Z,4.52
2023-05-08T17:08:43.601Z,4.30
2023-05-08T17:19:01.318Z,4.28
2023-05-08T17:24:08.247Z,4.50
2023-05-08T17:29:16.724Z,4.26
2023-05-08T17:34:29.605Z,4.28
2023-05-08T17:39:28.094Z,4.68
2023-05-08T17:44:38.495Z,3.80
2023-05-08T17:49:37.028Z,3.34
2023-05-08T17:54:49.541Z,3.33
2023-05-08T18:04:58.428Z,3.33
2023-05-08T18:10:12.306Z,3.86
2023-05-08T18:15:11.022Z,3.44
2023-05-08T18:20:19.664Z,3.75
2023-05-08T18:25:28.760Z,5.26
2023-05-08T18:30:37.264Z,4.79
2023-05-08T18:35:46.518Z,3.97
2023-05-08T18:40:55.193Z,4.03
2023-05-08T18:46:04.770Z,3.93
2023-05-08T18:51:13.637Z,4.29
2023-05-08T18:56:22.463Z,4.11
2023-05-08T19:01:31.118Z,4.72
2023-05-08T19:06:40.474Z,5.75
2023-05-08T19:11:49.254Z,5.25
2023-05-08T19:16:58.709Z,4.93
2023-05-08T19:22:06.781Z,4.80
2023-05-08T19:27:15.740Z,5.15
2023-05-08T19:32:23.987Z,5.34
2023-05-08T19:37:33.280Z,5.44
2023-05-08T19:42:41.843Z,5.46
2023-05-08T19:47:51.151Z,5.36
2023-05-08T19:52:59.854Z,7.12
2023-05-08T19:58:08.403Z,11.73
2023-05-08T20:03:17.076Z,12.77
2023-05-08T20:08:26.096Z,9.62
2023-05-08T20:13:35.273Z,6.58
2023-05-08T20:18:44.543Z,6.14
2023-05-08T20:23:53.206Z,7.17
2023-05-08T20:29:02.113Z,5.97
2023-05-08T20:34:11.036Z,5.65
2023-05-08T20:39:20.517Z,5.44
2023-05-08T20:44:29.447Z,5.35
2023-05-08T20:49:38.344Z,5.46
2023-05-08T20:54:46.789Z,5.72
2023-05-08T20:59:55.729Z,5.50
2023-05-08T21:05:07.923Z,6.16
2023-05-08T21:10:06.443Z,5.56
2023-05-08T21:15:15.130Z,5.30
2023-05-08T21:20:23.690Z,5.19
2023-05-08T21:25:32.136Z,6.63
2023-05-08T21:30:41.196Z,5.89
2023-05-08T21:35:49.705Z,6.01
2023-05-08T21:40:59.060Z,5.59
2023-05-08T21:46:07.592Z,5.14
2023-05-08T21:51:16.432Z,5.13
2023-05-08T21:56:24.886Z,6.05
2023-05-08T22:01:33.857Z,5.99
2023-05-08T22:06:42.392Z,5.53
2023-05-08T22:11:54.307Z,5.15
2023-05-08T22:16:52.697Z,5.58
2023-05-08T22:22:01.553Z,5.79
2023-05-08T22:27:09.697Z,6.91
2023-05-08T22:32:18.522Z,7.68
2023-05-08T22:37:27.055Z,7.60
2023-05-08T22:42:36.710Z,8.67
2023-05-08T22:47:45.467Z,8.64
2023-05-08T22:52:54.755Z,8.19
2023-05-08T22:58:03.511Z,7.71
2023-05-08T23:03:12.249Z,6.86
2023-05-08T23:08:20.820Z,6.79
2023-05-08T23:13:29.850Z,6.90
2023-05-08T23:18:38.564Z,6.68
2023-05-08T23:23:48.140Z,6.55
2023-05-08T23:28:56.199Z,6.56
2023-05-08T23:34:04.963Z,6.29
2023-05-08T23:39:13.574Z,6.83
2023-05-08T23:44:22.723Z,6.89
2023-05-08T23:49:31.332Z,6.99
2023-05-08T23:54:40.966Z,6.65
2023-05-08T23:59:49.645Z,7.01
